sensor_id;sensor_type;location;lat;lon;timestamp;temperature;humidity
23100;DHT22;53791;50.696;4.396;2023-05-14T00:03:15;14.00;99.90
23100;DHT22;53791;50.696;4.396;2023-05-14T00:05:52;14.00;99.90
23100;DHT22;53791;50.696;4.396;2023-05-14T00:08:31;14.00;99.90
23100;DHT22;53791;50.696;4.396;2023-05-14T00:10:59;13.90;99.90
23100;DHT22;53791;50.696;4.396;2023-05-14T00:13:37;14.00;99.90
23100;DHT22;53791;50.696;4.396;2023-05-14T00:18:48;13.90;99.90
23100;DHT22;53791;50.696;4.396;2023-05-14T00:21:28;13.90;99.90
23100;DHT22;53791;50.696;4.396;2023-05-14T00:24:02;13.90;99.90
23100;DHT22;53791;50.696;4.396;2023-05-14T00:26:32;13.90;99.90
23100;DHT22;53791;50.696;4.396;2023-05-14T00:29:05;13.90;99.90
23100;DHT22;53791;50.696;4.396;2023-05-14T00:31:41;13.80;99.90
23100;DHT22;53791;50.696;4.396;2023-05-14T00:37:36;13.80;99.90
23100;DHT22;53791;50.696;4.396;2023-05-14T00:39:32;13.80;99.90
23100;DHT22;53791;50.696;4.396;2023-05-14T00:42:05;13.80;99.90
23100;DHT22;53791;50.696;4.396;2023-05-14T00:44:36;13.80;99.90
23100;DHT22;53791;50.696;4.396;2023-05-14T00:47:09;13.80;99.90
23100;DHT22;53791;50.696;4.396;2023-05-14T00:49:49;13.70;99.90
23100;DHT22;53791;50.696;4.396;2023-05-14T00:55:12;13.70;99.90
23100;DHT22;53791;50.696;4.396;2023-05-14T00:57:33;13.70;99.90
23100;DHT22;53791;50.696;4.396;2023-05-14T01:00:04;13.70;99.90
23100;DHT22;53791;50.696;4.396;2023-05-14T01:02:36;13.70;99.90
23100;DHT22;53791;50.696;4.396;2023-05-14T01:16:59;13.70;99.90
23100;DHT22;53791;50.696;4.396;2023-05-14T01:19:41;13.60;99.90
23100;DHT22;53791;50.696;4.396;2023-05-14T01:22:24;13.50;99.90
23100;DHT22;53791;50.696;4.396;2023-05-14T01:24:59;13.50;99.90
23100;DHT22;53791;50.696;4.396;2023-05-14T01:33:06;13.40;99.90
23100;DHT22;53791;50.696;4.396;2023-05-14T01:38:11;13.50;99.90
23100;DHT22;53791;50.696;4.396;2023-05-14T01:40:48;13.50;99.90
23100;DHT22;53791;50.696;4.396;2023-05-14T01:45:58;13.40;99.90
23100;DHT22;53791;50.696;4.396;2023-05-14T01:48:31;13.50;99.90
23100;DHT22;53791;50.696;4.396;2023-05-14T01:51:03;13.50;99.90
23100;DHT22;53791;50.696;4.396;2023-05-14T01:53:35;13.50;99.90
23100;DHT22;53791;50.696;4.396;2023-05-14T01:56:07;13.50;99.90
23100;DHT22;53791;50.696;4.396;2023-05-14T01:58:43;13.60;99.90
23100;DHT22;53791;50.696;4.396;2023-05-14T02:01:20;13.70;99.90
23100;DHT22;53791;50.696;4.396;2023-05-14T02:03:53;13.70;99.90
23100;DHT22;53791;50.696;4.396;2023-05-14T02:06:32;13.70;99.90
23100;DHT22;53791;50.696;4.396;2023-05-14T02:09:01;13.60;99.90
23100;DHT22;53791;50.696;4.396;2023-05-14T02:11:45;13.70;99.90
23100;DHT22;53791;50.696;4.396;2023-05-14T02:14:18;13.60;99.90
23100;DHT22;53791;50.696;4.396;2023-05-14T02:16:56;13.60;99.90
23100;DHT22;53791;50.696;4.396;2023-05-14T02:19:28;13.70;99.90
23100;DHT22;53791;50.696;4.396;2023-05-14T02:21:56;13.60;99.90
23100;DHT22;53791;50.696;4.396;2023-05-14T02:24:31;13.60;99.90
23100;DHT22;53791;50.696;4.396;2023-05-14T02:27:05;13.50;99.90
23100;DHT22;53791;50.696;4.396;2023-05-14T02:32:19;13.40;99.90
23100;DHT22;53791;50.696;4.396;2023-05-14T02:37:29;13.40;99.90
23100;DHT22;53791;50.696;4.396;2023-05-14T02:40:10;13.40;99.90
23100;DHT22;53791;50.696;4.396;2023-05-14T02:42:55;13.40;99.90
23100;DHT22;53791;50.696;4.396;2023-05-14T02:45:09;13.50;99.90
23100;DHT22;53791;50.696;4.396;2023-05-14T02:47:43;13.50;99.90
23100;DHT22;53791;50.696;4.396;2023-05-14T02:50:33;13.40;99.90
23100;DHT22;53791;50.696;4.396;2023-05-14T02:52:45;13.30;99.90
23100;DHT22;53791;50.696;4.396;2023-05-14T02:55:17;13.40;99.90
23100;DHT22;53791;50.696;4.396;2023-05-14T02:57:51;13.40;99.90
23100;DHT22;53791;50.696;4.396;2023-05-14T03:00:28;13.40;99.90
23100;DHT22;53791;50.696;4.396;2023-05-14T03:05:34;13.40;99.90
23100;DHT22;53791;50.696;4.396;2023-05-14T03:10:39;13.40;99.90
23100;DHT22;53791;50.696;4.396;2023-05-14T03:13:19;13.40;99.90
23100;DHT22;53791;50.696;4.396;2023-05-14T03:15:43;13.50;99.90
23100;DHT22;53791;50.696;4.396;2023-05-14T03:18:19;13.50;99.90
23100;DHT22;53791;50.696;4.396;2023-05-14T03:21:01;13.50;99.90
23100;DHT22;53791;50.696;4.396;2023-05-14T03:23:28;13.50;99.90
23100;DHT22;53791;50.696;4.396;2023-05-14T03:26:00;13.50;99.90
23100;DHT22;53791;50.696;4.396;2023-05-14T03:28:33;13.50;99.90
23100;DHT22;53791;50.696;4.396;2023-05-14T03:31:05;13.60;99.90
23100;DHT22;53791;50.696;4.396;2023-05-14T03:33:31;13.60;99.90
23100;DHT22;53791;50.696;4.396;2023-05-14T03:36:11;13.60;99.90
23100;DHT22;53791;50.696;4.396;2023-05-14T03:38:43;13.60;99.90
23100;DHT22;53791;50.696;4.396;2023-05-14T03:41:45;13.60;99.90
23100;DHT22;53791;50.696;4.396;2023-05-14T03:46:44;13.60;99.90
23100;DHT22;53791;50.696;4.396;2023-05-14T03:49:18;13.50;99.90
23100;DHT22;53791;50.696;4.396;2023-05-14T03:51:50;13.50;99.90
23100;DHT22;53791;50.696;4.396;2023-05-14T03:54:43;13.50;99.90
23100;DHT22;53791;50.696;4.396;2023-05-14T03:56:57;13.50;99.90
23100;DHT22;53791;50.696;4.396;2023-05-14T04:00:16;13.50;99.90
23100;DHT22;53791;50.696;4.396;2023-05-14T04:02:08;13.60;99.90
23100;DHT22;53791;50.696;4.396;2023-05-14T04:04:40;13.50;99.90
23100;DHT22;53791;50.696;4.396;2023-05-14T04:07:13;13.50;99.90
23100;DHT22;53791;50.696;4.396;2023-05-14T04:09:44;13.60;99.90
23100;DHT22;53791;50.696;4.396;2023-05-14T04:12:18;13.50;99.90
23100;DHT22;53791;50.696;4.396;2023-05-14T04:21:17;13.60;99.90
23100;DHT22;53791;50.696;4.396;2023-05-14T04:23:04;13.70;99.90
23100;DHT22;53791;50.696;4.396;2023-05-14T04:28:39;13.50;99.90
23100;DHT22;53791;50.696;4.396;2023-05-14T04:31:11;13.50;99.90
23100;DHT22;53791;50.696;4.396;2023-05-14T04:34:01;13.50;99.90
23100;DHT22;53791;50.696;4.396;2023-05-14T04:36:40;13.50;99.90
23100;DHT22;53791;50.696;4.396;2023-05-14T04:39:13;13.50;99.90
23100;DHT22;53791;50.696;4.396;2023-05-14T04:41:57;13.60;99.90
23100;DHT22;53791;50.696;4.396;2023-05-14T04:44:31;13.60;99.90
23100;DHT22;53791;50.696;4.396;2023-05-14T04:47:03;13.60;99.90
23100;DHT22;53791;50.696;4.396;2023-05-14T04:49:41;13.60;99.90
23100;DHT22;53791;50.696;4.396;2023-05-14T04:55:01;13.70;99.90
23100;DHT22;53791;50.696;4.396;2023-05-14T04:57:55;13.70;99.90
23100;DHT22;53791;50.696;4.396;2023-05-14T05:00:37;13.70;99.90
23100;DHT22;53791;50.696;4.396;2023-05-14T05:03:23;13.70;99.90
23100;DHT22;53791;50.696;4.396;2023-05-14T05:05:56;13.70;99.90
23100;DHT22;53791;50.696;4.396;2023-05-14T05:08:32;13.80;99.90
23100;DHT22;53791;50.696;4.396;2023-05-14T05:11:06;13.70;99.90
23100;DHT22;53791;50.696;4.396;2023-05-14T05:13:38;13.70;99.90
23100;DHT22;53791;50.696;4.396;2023-05-14T05:16:13;13.70;99.90
23100;DHT22;53791;50.696;4.396;2023-05-14T05:21:48;13.70;99.90
23100;DHT22;53791;50.696;4.396;2023-05-14T05:24:30;13.60;99.90
23100;DHT22;53791;50.696;4.396;2023-05-14T05:29:55;13.70;99.90
23100;DHT22;53791;50.696;4.396;2023-05-14T05:36:04;13.80;99.90
23100;DHT22;53791;50.696;4.396;2023-05-14T05:38:57;13.80;99.90
23100;DHT22;53791;50.696;4.396;2023-05-14T05:47:20;13.80;99.90
23100;DHT22;53791;50.696;4.396;2023-05-14T05:50:04;13.80;99.90
23100;DHT22;53791;50.696;4.396;2023-05-14T05:52:45;13.90;99.90
23100;DHT22;53791;50.696;4.396;2023-05-14T05:55:13;13.90;99.90
23100;DHT22;53791;50.696;4.396;2023-05-14T05:57:49;13.90;99.90
23100;DHT22;53791;50.696;4.396;2023-05-14T06:00:24;14.00;99.90
23100;DHT22;53791;50.696;4.396;2023-05-14T06:02:58;13.90;99.90
23100;DHT22;53791;50.696;4.396;2023-05-14T06:05:36;13.80;99.90
23100;DHT22;53791;50.696;4.396;2023-05-14T06:08:10;13.70;99.90
23100;DHT22;53791;50.696;4.396;2023-05-14T06:10:59;13.70;99.90
23100;DHT22;53791;50.696;4.396;2023-05-14T06:16:36;13.60;99.90
23100;DHT22;53791;50.696;4.396;2023-05-14T06:19:16;13.60;99.90
23100;DHT22;53791;50.696;4.396;2023-05-14T06:21:51;13.60;99.90
23100;DHT22;53791;50.696;4.396;2023-05-14T06:24:30;13.70;99.90
23100;DHT22;53791;50.696;4.396;2023-05-14T06:27:05;13.80;99.90
23100;DHT22;53791;50.696;4.396;2023-05-14T06:29:39;13.80;99.90
23100;DHT22;53791;50.696;4.396;2023-05-14T06:32:18;13.80;99.90
23100;DHT22;53791;50.696;4.396;2023-05-14T06:34:52;13.80;99.90
23100;DHT22;53791;50.696;4.396;2023-05-14T06:37:44;13.90;99.90
23100;DHT22;53791;50.696;4.396;2023-05-14T06:40:27;13.80;99.90
23100;DHT22;53791;50.696;4.396;2023-05-14T06:51:38;13.70;99.90
23100;DHT22;53791;50.696;4.396;2023-05-14T06:54:23;13.80;99.90
23100;DHT22;53791;50.696;4.396;2023-05-14T06:59:36;13.80;99.90
23100;DHT22;53791;50.696;4.396;2023-05-14T07:02:06;13.80;99.90
23100;DHT22;53791;50.696;4.396;2023-05-14T07:04:44;13.80;99.90
23100;DHT22;53791;50.696;4.396;2023-05-14T07:10:11;13.80;99.90
23100;DHT22;53791;50.696;4.396;2023-05-14T07:12:40;13.70;99.90
23100;DHT22;53791;50.696;4.396;2023-05-14T07:15:17;13.70;99.90
23100;DHT22;53791;50.696;4.396;2023-05-14T07:17:55;13.70;99.90
23100;DHT22;53791;50.696;4.396;2023-05-14T07:20:40;13.70;99.90
23100;DHT22;53791;50.696;4.396;2023-05-14T07:25:56;13.80;99.90
23100;DHT22;53791;50.696;4.396;2023-05-14T07:31:07;13.70;99.90
23100;DHT22;53791;50.696;4.396;2023-05-14T07:33:45;13.80;99.90
23100;DHT22;53791;50.696;4.396;2023-05-14T07:39:33;13.80;99.90
23100;DHT22;53791;50.696;4.396;2023-05-14T07:41:26;13.80;99.90
23100;DHT22;53791;50.696;4.396;2023-05-14T07:43:55;13.80;99.90
23100;DHT22;53791;50.696;4.396;2023-05-14T07:46:42;13.80;99.90
23100;DHT22;53791;50.696;4.396;2023-05-14T07:49:36;13.90;99.90
23100;DHT22;53791;50.696;4.396;2023-05-14T07:52:08;13.90;99.90
23100;DHT22;53791;50.696;4.396;2023-05-14T07:55:37;13.90;99.90
23100;DHT22;53791;50.696;4.396;2023-05-14T07:57:55;13.90;99.90
23100;DHT22;53791;50.696;4.396;2023-05-14T08:03:21;14.10;99.90
23100;DHT22;53791;50.696;4.396;2023-05-14T08:05:57;14.20;99.90
23100;DHT22;53791;50.696;4.396;2023-05-14T08:14:12;14.40;99.90
23100;DHT22;53791;50.696;4.396;2023-05-14T08:16:47;14.50;99.90
23100;DHT22;53791;50.696;4.396;2023-05-14T08:19:19;14.50;99.90
23100;DHT22;53791;50.696;4.396;2023-05-14T08:22:01;14.50;99.90
23100;DHT22;53791;50.696;4.396;2023-05-14T08:24:33;14.50;99.90
23100;DHT22;53791;50.696;4.396;2023-05-14T08:27:32;14.60;99.90
23100;DHT22;53791;50.696;4.396;2023-05-14T08:30:14;14.70;99.90
23100;DHT22;53791;50.696;4.396;2023-05-14T08:33:01;14.70;99.90
23100;DHT22;53791;50.696;4.396;2023-05-14T08:35:57;14.70;99.90
23100;DHT22;53791;50.696;4.396;2023-05-14T08:38:33;14.50;99.90
23100;DHT22;53791;50.696;4.396;2023-05-14T08:50:15;14.60;99.90
23100;DHT22;53791;50.696;4.396;2023-05-14T08:52:48;14.60;99.90
23100;DHT22;53791;50.696;4.396;2023-05-14T08:55:22;14.70;99.90
23100;DHT22;53791;50.696;4.396;2023-05-14T08:57:54;14.60;99.90
23100;DHT22;53791;50.696;4.396;2023-05-14T09:00:35;14.60;99.90
23100;DHT22;53791;50.696;4.396;2023-05-14T09:09:32;15.00;99.90
23100;DHT22;53791;50.696;4.396;2023-05-14T09:12:15;15.20;99.90
23100;DHT22;53791;50.696;4.396;2023-05-14T09:14:48;15.30;99.90
23100;DHT22;53791;50.696;4.396;2023-05-14T09:17:28;15.40;99.90
23100;DHT22;53791;50.696;4.396;2023-05-14T09:20:20;15.40;99.90
23100;DHT22;53791;50.696;4.396;2023-05-14T09:22:59;15.40;99.90
23100;DHT22;53791;50.696;4.396;2023-05-14T09:25:43;15.50;99.90
23100;DHT22;53791;50.696;4.396;2023-05-14T09:28:22;15.60;99.90
23100;DHT22;53791;50.696;4.396;2023-05-14T09:30:52;15.50;99.90
23100;DHT22;53791;50.696;4.396;2023-05-14T09:36:24;15.60;99.90
23100;DHT22;53791;50.696;4.396;2023-05-14T09:38:59;15.60;99.90
23100;DHT22;53791;50.696;4.396;2023-05-14T09:44:13;15.50;99.90
23100;DHT22;53791;50.696;4.396;2023-05-14T09:46:45;15.80;99.90
23100;DHT22;53791;50.696;4.396;2023-05-14T09:49:24;16.10;99.90
23100;DHT22;53791;50.696;4.396;2023-05-14T09:51:59;16.60;99.90
23100;DHT22;53791;50.696;4.396;2023-05-14T09:54:33;17.20;99.90
23100;DHT22;53791;50.696;4.396;2023-05-14T09:57:09;17.70;99.90
23100;DHT22;53791;50.696;4.396;2023-05-14T10:05:08;18.90;99.90
23100;DHT22;53791;50.696;4.396;2023-05-14T10:07:48;19.40;99.90
23100;DHT22;53791;50.696;4.396;2023-05-14T10:10:29;19.70;99.90
23100;DHT22;53791;50.696;4.396;2023-05-14T10:13:06;19.80;99.90
23100;DHT22;53791;50.696;4.396;2023-05-14T10:18:39;19.90;99.90
23100;DHT22;53791;50.696;4.396;2023-05-14T10:21:27;20.00;99.90
23100;DHT22;53791;50.696;4.396;2023-05-14T10:28:53;20.30;99.90
23100;DHT22;53791;50.696;4.396;2023-05-14T10:34:42;20.70;99.90
23100;DHT22;53791;50.696;4.396;2023-05-14T10:42:37;21.20;99.90
23100;DHT22;53791;50.696;4.396;2023-05-14T10:45:56;21.10;99.90
23100;DHT22;53791;50.696;4.396;2023-05-14T10:47:45;21.40;99.90
23100;DHT22;53791;50.696;4.396;2023-05-14T10:50:22;21.50;99.90
23100;DHT22;53791;50.696;4.396;2023-05-14T10:52:55;21.90;99.90
23100;DHT22;53791;50.696;4.396;2023-05-14T10:58:17;21.90;99.90
23100;DHT22;53791;50.696;4.396;2023-05-14T11:01:05;21.80;99.90
23100;DHT22;53791;50.696;4.396;2023-05-14T11:03:42;22.10;99.90
23100;DHT22;53791;50.696;4.396;2023-05-14T11:06:12;22.40;99.90
23100;DHT22;53791;50.696;4.396;2023-05-14T11:09:02;22.50;99.90
23100;DHT22;53791;50.696;4.396;2023-05-14T11:11:37;22.50;99.90
23100;DHT22;53791;50.696;4.396;2023-05-14T11:14:14;22.90;99.90
23100;DHT22;53791;50.696;4.396;2023-05-14T11:16:40;23.10;99.90
23100;DHT22;53791;50.696;4.396;2023-05-14T11:19:10;23.20;99.90
23100;DHT22;53791;50.696;4.396;2023-05-14T11:21:54;23.30;99.90
23100;DHT22;53791;50.696;4.396;2023-05-14T11:24:25;23.40;99.90
23100;DHT22;53791;50.696;4.396;2023-05-14T11:26:56;23.40;99.90
23100;DHT22;53791;50.696;4.396;2023-05-14T11:29:36;23.50;99.90
23100;DHT22;53791;50.696;4.396;2023-05-14T11:32:07;23.60;99.90
23100;DHT22;53791;50.696;4.396;2023-05-14T11:34:41;23.70;99.90
23100;DHT22;53791;50.696;4.396;2023-05-14T11:37:12;23.90;99.90
23100;DHT22;53791;50.696;4.396;2023-05-14T11:39:53;24.20;99.90
23100;DHT22;53791;50.696;4.396;2023-05-14T11:42:33;24.50;99.90
23100;DHT22;53791;50.696;4.396;2023-05-14T11:45:22;24.40;99.90
23100;DHT22;53791;50.696;4.396;2023-05-14T11:47:58;24.50;99.90
23100;DHT22;53791;50.696;4.396;2023-05-14T11:50:34;24.10;99.90
23100;DHT22;53791;50.696;4.396;2023-05-14T11:55:55;24.30;99.90
23100;DHT22;53791;50.696;4.396;2023-05-14T12:01:43;24.30;99.90
23100;DHT22;53791;50.696;4.396;2023-05-14T12:04:12;24.60;99.90
23100;DHT22;53791;50.696;4.396;2023-05-14T12:09:27;25.20;99.90
23100;DHT22;53791;50.696;4.396;2023-05-14T12:12:06;25.30;99.90
23100;DHT22;53791;50.696;4.396;2023-05-14T12:14:43;25.20;99.90
23100;DHT22;53791;50.696;4.396;2023-05-14T12:18:15;25.10;99.90
23100;DHT22;53791;50.696;4.396;2023-05-14T12:20:12;25.20;99.90
23100;DHT22;53791;50.696;4.396;2023-05-14T12:23:09;25.20;99.90
23100;DHT22;53791;50.696;4.396;2023-05-14T12:26:03;25.50;99.90
23100;DHT22;53791;50.696;4.396;2023-05-14T12:28:46;25.80;99.90
23100;DHT22;53791;50.696;4.396;2023-05-14T12:31:43;26.20;99.90
23100;DHT22;53791;50.696;4.396;2023-05-14T12:51:58;26.60;99.90
23100;DHT22;53791;50.696;4.396;2023-05-14T12:54:32;26.50;99.90
23100;DHT22;53791;50.696;4.396;2023-05-14T12:57:45;26.60;99.90
23100;DHT22;53791;50.696;4.396;2023-05-14T12:59:55;26.40;99.90
23100;DHT22;53791;50.696;4.396;2023-05-14T13:02:38;26.80;99.90
23100;DHT22;53791;50.696;4.396;2023-05-14T13:05:13;27.10;99.90
23100;DHT22;53791;50.696;4.396;2023-05-14T13:13:33;27.60;99.90
23100;DHT22;53791;50.696;4.396;2023-05-14T13:16:29;27.70;99.90
23100;DHT22;53791;50.696;4.396;2023-05-14T13:19:16;27.20;99.90
23100;DHT22;53791;50.696;4.396;2023-05-14T13:22:02;27.00;99.90
23100;DHT22;53791;50.696;4.396;2023-05-14T13:24:36;27.00;99.90
23100;DHT22;53791;50.696;4.396;2023-05-14T13:27:26;26.90;99.90
23100;DHT22;53791;50.696;4.396;2023-05-14T13:30:11;27.20;99.90
23100;DHT22;53791;50.696;4.396;2023-05-14T13:32:55;27.30;99.90
23100;DHT22;53791;50.696;4.396;2023-05-14T13:35:46;27.40;99.90
23100;DHT22;53791;50.696;4.396;2023-05-14T13:38:19;27.30;99.90
23100;DHT22;53791;50.696;4.396;2023-05-14T13:44:23;27.40;99.90
23100;DHT22;53791;50.696;4.396;2023-05-14T13:47:26;27.80;99.90
23100;DHT22;53791;50.696;4.396;2023-05-14T13:50:18;27.80;99.90
23100;DHT22;53791;50.696;4.396;2023-05-14T14:06:44;26.10;99.90
23100;DHT22;53791;50.696;4.396;2023-05-14T14:19:38;27.20;99.90
23100;DHT22;53791;50.696;4.396;2023-05-14T14:22:09;27.00;99.90
23100;DHT22;53791;50.696;4.396;2023-05-14T14:29:57;26.40;99.90
23100;DHT22;53791;50.696;4.396;2023-05-14T14:32:40;26.30;99.90
23100;DHT22;53791;50.696;4.396;2023-05-14T14:38:15;25.90;99.90
23100;DHT22;53791;50.696;4.396;2023-05-14T15:28:04;23.70;99.90
23100;DHT22;53791;50.696;4.396;2023-05-14T15:30:36;23.70;99.90
23100;DHT22;53791;50.696;4.396;2023-05-14T15:33:06;23.60;99.90
23100;DHT22;53791;50.696;4.396;2023-05-14T15:38:12;23.10;99.90
23100;DHT22;53791;50.696;4.396;2023-05-14T15:40:43;23.10;99.90
23100;DHT22;53791;50.696;4.396;2023-05-14T15:43:31;23.00;99.90
23100;DHT22;53791;50.696;4.396;2023-05-14T15:46:00;22.90;99.90
23100;DHT22;53791;50.696;4.396;2023-05-14T15:48:30;23.00;99.90
23100;DHT22;53791;50.696;4.396;2023-05-14T15:51:14;23.00;99.90
23100;DHT22;53791;50.696;4.396;2023-05-14T15:53:56;22.90;99.90
23100;DHT22;53791;50.696;4.396;2023-05-14T18:10:51;18.40;99.90
23100;DHT22;53791;50.696;4.396;2023-05-14T18:23:49;17.90;99.90
23100;DHT22;53791;50.696;4.396;2023-05-14T18:26:17;17.90;99.90
23100;DHT22;53791;50.696;4.396;2023-05-14T18:28:47;17.70;99.90
23100;DHT22;53791;50.696;4.396;2023-05-14T18:31:15;17.60;99.90
23100;DHT22;53791;50.696;4.396;2023-05-14T18:33:42;17.60;99.90
23100;DHT22;53791;50.696;4.396;2023-05-14T18:36:10;17.50;99.90
23100;DHT22;53791;50.696;4.396;2023-05-14T18:38:38;17.40;99.90
23100;DHT22;53791;50.696;4.396;2023-05-14T18:41:06;17.40;99.90
23100;DHT22;53791;50.696;4.396;2023-05-14T18:43:33;17.30;99.90
23100;DHT22;53791;50.696;4.396;2023-05-14T18:46:01;17.20;99.90
23100;DHT22;53791;50.696;4.396;2023-05-14T18:48:30;17.20;99.90
23100;DHT22;53791;50.696;4.396;2023-05-14T18:51:00;17.10;99.90
23100;DHT22;53791;50.696;4.396;2023-05-14T18:53:28;17.00;99.90
23100;DHT22;53791;50.696;4.396;2023-05-14T18:55:56;16.90;99.90
23100;DHT22;53791;50.696;4.396;2023-05-14T18:58:25;16.80;99.90
23100;DHT22;53791;50.696;4.396;2023-05-14T19:00:53;16.80;99.90
23100;DHT22;53791;50.696;4.396;2023-05-14T19:03:22;16.80;99.90
23100;DHT22;53791;50.696;4.396;2023-05-14T19:05:51;16.70;99.90
23100;DHT22;53791;50.696;4.396;2023-05-14T19:08:19;16.60;99.90
23100;DHT22;53791;50.696;4.396;2023-05-14T19:10:47;16.50;99.90
23100;DHT22;53791;50.696;4.396;2023-05-14T19:13:14;16.50;99.90
23100;DHT22;53791;50.696;4.396;2023-05-14T19:15:42;16.30;99.90
23100;DHT22;53791;50.696;4.396;2023-05-14T19:18:10;16.30;99.90
23100;DHT22;53791;50.696;4.396;2023-05-14T19:20:38;16.10;99.90
23100;DHT22;53791;50.696;4.396;2023-05-14T19:23:06;16.20;99.90
23100;DHT22;53791;50.696;4.396;2023-05-14T19:25:33;16.20;99.90
23100;DHT22;53791;50.696;4.396;2023-05-14T19:28:01;16.10;99.90
23100;DHT22;53791;50.696;4.396;2023-05-14T19:30:30;16.10;99.90
23100;DHT22;53791;50.696;4.396;2023-05-14T19:32:58;16.10;99.90
23100;DHT22;53791;50.696;4.396;2023-05-14T19:35:25;16.10;99.90
23100;DHT22;53791;50.696;4.396;2023-05-14T19:37:53;16.10;99.90
23100;DHT22;53791;50.696;4.396;2023-05-14T19:40:20;16.00;99.90
23100;DHT22;53791;50.696;4.396;2023-05-14T19:42:48;16.00;99.90
23100;DHT22;53791;50.696;4.396;2023-05-14T19:45:15;15.90;99.90
23100;DHT22;53791;50.696;4.396;2023-05-14T19:47:43;15.90;99.90
23100;DHT22;53791;50.696;4.396;2023-05-14T19:50:11;15.90;99.90
23100;DHT22;53791;50.696;4.396;2023-05-14T19:52:38;15.90;99.90
23100;DHT22;53791;50.696;4.396;2023-05-14T19:55:06;15.80;99.90
23100;DHT22;53791;50.696;4.396;2023-05-14T19:57:33;15.80;99.90
23100;DHT22;53791;50.696;4.396;2023-05-14T20:00:01;15.70;99.90
23100;DHT22;53791;50.696;4.396;2023-05-14T20:02:29;15.70;99.90
23100;DHT22;53791;50.696;4.396;2023-05-14T20:04:57;15.70;99.90
23100;DHT22;53791;50.696;4.396;2023-05-14T20:07:24;15.70;99.90
23100;DHT22;53791;50.696;4.396;2023-05-14T20:09:52;15.50;99.90
23100;DHT22;53791;50.696;4.396;2023-05-14T20:12:20;15.50;99.90
23100;DHT22;53791;50.696;4.396;2023-05-14T20:14:56;15.40;99.90
23100;DHT22;53791;50.696;4.396;2023-05-14T20:17:23;15.40;99.90
23100;DHT22;53791;50.696;4.396;2023-05-14T20:19:51;15.30;99.90
23100;DHT22;53791;50.696;4.396;2023-05-14T20:22:18;15.20;99.90
23100;DHT22;53791;50.696;4.396;2023-05-14T20:24:46;15.10;99.90
23100;DHT22;53791;50.696;4.396;2023-05-14T20:27:13;15.00;99.90
23100;DHT22;53791;50.696;4.396;2023-05-14T20:29:41;15.00;99.90
23100;DHT22;53791;50.696;4.396;2023-05-14T20:32:08;15.00;99.90
23100;DHT22;53791;50.696;4.396;2023-05-14T20:34:36;15.00;99.90
23100;DHT22;53791;50.696;4.396;2023-05-14T20:37:04;14.90;99.90
23100;DHT22;53791;50.696;4.396;2023-05-14T20:39:33;14.80;99.90
23100;DHT22;53791;50.696;4.396;2023-05-14T20:42:01;14.70;99.90
23100;DHT22;53791;50.696;4.396;2023-05-14T20:44:28;14.60;99.90
23100;DHT22;53791;50.696;4.396;2023-05-14T20:46:56;14.60;99.90
23100;DHT22;53791;50.696;4.396;2023-05-14T20:49:23;14.40;99.90
23100;DHT22;53791;50.696;4.396;2023-05-14T20:51:51;14.40;99.90
23100;DHT22;53791;50.696;4.396;2023-05-14T20:54:18;14.30;99.90
23100;DHT22;53791;50.696;4.396;2023-05-14T20:56:46;14.30;99.90
23100;DHT22;53791;50.696;4.396;2023-05-14T20:59:13;14.30;99.90
23100;DHT22;53791;50.696;4.396;2023-05-14T21:01:41;14.30;99.90
23100;DHT22;53791;50.696;4.396;2023-05-14T21:04:08;14.30;99.90
23100;DHT22;53791;50.696;4.396;2023-05-14T21:06:36;14.30;99.90
23100;DHT22;53791;50.696;4.396;2023-05-14T21:09:03;14.30;99.90
23100;DHT22;53791;50.696;4.396;2023-05-14T21:11:31;14.20;99.90
23100;DHT22;53791;50.696;4.396;2023-05-14T21:13:58;14.20;99.90
23100;DHT22;53791;50.696;4.396;2023-05-14T21:16:33;14.20;99.90
23100;DHT22;53791;50.696;4.396;2023-05-14T21:19:01;14.10;99.90
23100;DHT22;53791;50.696;4.396;2023-05-14T21:21:28;14.10;99.90
23100;DHT22;53791;50.696;4.396;2023-05-14T21:23:56;14.00;99.90
23100;DHT22;53791;50.696;4.396;2023-05-14T21:26:25;14.00;99.90
23100;DHT22;53791;50.696;4.396;2023-05-14T21:28:52;13.90;99.90
23100;DHT22;53791;50.696;4.396;2023-05-14T21:31:20;13.70;99.90
23100;DHT22;53791;50.696;4.396;2023-05-14T21:33:47;13.70;99.90
23100;DHT22;53791;50.696;4.396;2023-05-14T21:36:15;13.50;99.90
23100;DHT22;53791;50.696;4.396;2023-05-14T21:38:42;13.60;99.90
23100;DHT22;53791;50.696;4.396;2023-05-14T21:41:10;13.40;99.90
23100;DHT22;53791;50.696;4.396;2023-05-14T21:43:37;13.30;99.90
23100;DHT22;53791;50.696;4.396;2023-05-14T21:46:06;13.30;99.90
23100;DHT22;53791;50.696;4.396;2023-05-14T21:48:34;13.20;99.90
23100;DHT22;53791;50.696;4.396;2023-05-14T21:51:01;13.10;99.90
23100;DHT22;53791;50.696;4.396;2023-05-14T21:53:29;13.20;99.90
23100;DHT22;53791;50.696;4.396;2023-05-14T21:55:56;13.30;99.90
23100;DHT22;53791;50.696;4.396;2023-05-14T21:58:24;13.30;99.90
23100;DHT22;53791;50.696;4.396;2023-05-14T22:00:52;13.40;99.90
23100;DHT22;53791;50.696;4.396;2023-05-14T22:03:21;13.40;99.90
23100;DHT22;53791;50.696;4.396;2023-05-14T22:05:49;13.30;99.90
23100;DHT22;53791;50.696;4.396;2023-05-14T22:08:17;13.10;99.90
23100;DHT22;53791;50.696;4.396;2023-05-14T22:10:46;13.00;99.90
23100;DHT22;53791;50.696;4.396;2023-05-14T22:13:13;13.10;99.90
23100;DHT22;53791;50.696;4.396;2023-05-14T22:15:41;13.00;99.90
23100;DHT22;53791;50.696;4.396;2023-05-14T22:18:10;12.80;99.90
23100;DHT22;53791;50.696;4.396;2023-05-14T22:20:38;12.70;99.90
23100;DHT22;53791;50.696;4.396;2023-05-14T22:23:05;12.80;99.90
23100;DHT22;53791;50.696;4.396;2023-05-14T22:25:33;12.70;99.90
23100;DHT22;53791;50.696;4.396;2023-05-14T22:28:01;12.70;99.90
23100;DHT22;53791;50.696;4.396;2023-05-14T22:30:30;12.60;99.90
23100;DHT22;53791;50.696;4.396;2023-05-14T22:32:57;12.50;99.90
23100;DHT22;53791;50.696;4.396;2023-05-14T22:35:25;12.40;99.90
23100;DHT22;53791;50.696;4.396;2023-05-14T22:37:52;12.40;99.90
23100;DHT22;53791;50.696;4.396;2023-05-14T22:40:20;12.40;99.90
23100;DHT22;53791;50.696;4.396;2023-05-14T22:42:47;12.30;99.90
23100;DHT22;53791;50.696;4.396;2023-05-14T22:45:15;12.30;99.90
23100;DHT22;53791;50.696;4.396;2023-05-14T22:47:43;12.40;99.90
23100;DHT22;53791;50.696;4.396;2023-05-14T22:50:10;12.30;99.90
23100;DHT22;53791;50.696;4.396;2023-05-14T22:52:39;12.10;99.90
23100;DHT22;53791;50.696;4.396;2023-05-14T22:55:07;12.00;99.90
23100;DHT22;53791;50.696;4.396;2023-05-14T22:57:35;11.90;99.90
23100;DHT22;53791;50.696;4.396;2023-05-14T23:00:03;11.90;99.90
23100;DHT22;53791;50.696;4.396;2023-05-14T23:02:30;11.90;99.90
23100;DHT22;53791;50.696;4.396;2023-05-14T23:04:58;11.70;99.90
23100;DHT22;53791;50.696;4.396;2023-05-14T23:07:26;11.60;99.90